Time;durP1;ratioP1;P1;durP2;ratioP2;P2;SDS_P1;SDS_P2;PMS_P1;PMS_P2;Temp;Humidity;BMP_temperature;BMP_pressure;BME280_temperature;BME280_humidity;BME280_pressure;Samples;Min_cycle;Max_cycle;Signal;HPM_P1;HPM_P2
2023/09/03 00:00:41;;;;;;;9.80;4.50;;;;;;;20.84;83.50;98561.91;4503639;31;20158;-77
2023/09/03 00:03:08;;;;;;;9.27;4.80;;;;;;;21.05;82.40;98563.75;4503560;31;20478;-76
2023/09/03 00:05:35;;;;;;;9.90;5.30;;;;;;;20.99;82.61;98569.47;4503560;31;20114;-77
2023/09/03 00:08:03;;;;;;;8.93;4.43;;;;;;;20.74;84.18;98560.00;4503776;31;20104;-77
2023/09/03 00:10:34;;;;;;;9.27;4.78;;;;;;;20.80;83.82;98564.78;4503439;31;20083;-77
2023/09/03 00:13:04;;;;;;;8.13;4.12;;;;;;;21.31;81.06;98555.66;4503816;31;20127;-77
2023/09/03 00:15:31;;;;;;;8.73;4.40;;;;;;;21.59;78.34;98560.41;4503610;31;20112;-77
2023/09/03 00:17:58;;;;;;;8.73;4.50;;;;;;;21.25;79.53;98561.34;4503334;31;20088;-78
2023/09/03 00:20:25;;;;;;;7.60;4.07;;;;;;;20.85;80.77;98553.94;4503544;31;20102;-77
2023/09/03 00:22:52;;;;;;;7.85;4.03;;;;;;;21.19;79.06;98560.03;4503603;31;20114;-77
2023/09/03 00:25:19;;;;;;;8.13;3.80;;;;;;;21.21;78.91;98560.75;4503172;31;20096;-77
2023/09/03 00:27:46;;;;;;;7.85;3.70;;;;;;;21.05;79.54;98562.88;4503468;31;20080;-77
2023/09/03 00:30:13;;;;;;;11.35;4.40;;;;;;;20.94;80.06;98561.09;4503698;31;20151;-77
2023/09/03 00:32:40;;;;;;;7.87;4.22;;;;;;;20.74;80.73;98557.41;4503262;31;20133;-77
2023/09/03 00:35:08;;;;;;;9.23;4.00;;;;;;;20.47;82.27;98552.44;4503420;31;20374;-78
2023/09/03 00:37:35;;;;;;;7.57;4.18;;;;;;;20.84;80.82;98554.03;4489311;31;20114;-77
2023/09/03 00:40:02;;;;;;;8.82;4.50;;;;;;;20.89;80.64;98557.16;4503117;31;20162;-77
2023/09/03 00:42:29;;;;;;;8.48;4.50;;;;;;;20.39;83.23;98549.50;4503434;31;20152;-77
2023/09/03 00:44:56;;;;;;;9.55;4.55;;;;;;;20.64;82.31;98545.09;4503315;31;20126;-77
2023/09/03 00:47:23;;;;;;;7.57;4.07;;;;;;;20.69;81.39;98542.94;4502988;31;20106;-77
2023/09/03 00:49:50;;;;;;;9.30;4.60;;;;;;;20.97;80.20;98546.94;4503671;31;20143;-77
2023/09/03 00:52:19;;;;;;;7.78;3.80;;;;;;;20.96;80.67;98548.72;4503110;31;20460;-77
2023/09/03 00:54:46;;;;;;;10.18;4.50;;;;;;;21.05;80.26;98547.16;4489292;31;20484;-77
2023/09/03 00:57:13;;;;;;;8.75;4.30;;;;;;;20.77;82.06;98548.44;4503294;31;20119;-77
2023/09/03 00:59:41;;;;;;;9.77;4.10;;;;;;;21.09;80.58;98549.44;4503092;31;20087;-77
2023/09/03 01:02:12;;;;;;;7.90;4.00;;;;;;;20.72;82.36;98545.34;4489099;31;20072;-77
2023/09/03 01:04:39;;;;;;;8.00;4.25;;;;;;;21.06;78.58;98547.06;4502921;31;20132;-77
2023/09/03 01:07:08;;;;;;;8.77;4.10;;;;;;;20.64;80.56;98542.47;4502966;31;20088;-77
2023/09/03 01:09:35;;;;;;;9.20;4.32;;;;;;;20.86;79.96;98546.91;4503182;31;20166;-77
2023/09/03 01:12:13;;;;;;;9.98;4.18;;;;;;;20.89;79.28;98547.50;4503324;31;20084;-77
2023/09/03 01:14:58;;;;;;;8.05;4.20;;;;;;;21.12;78.09;98543.09;4502892;31;20461;-77
2023/09/03 01:17:46;;;;;;;9.13;4.20;;;;;;;20.98;78.64;98541.56;4503091;31;20128;-77
2023/09/03 01:20:19;;;;;;;11.68;4.47;;;;;;;21.11;78.30;98546.69;4489271;31;20567;-77
2023/09/03 01:23:20;;;;;;;9.80;4.75;;;;;;;20.97;78.97;98539.88;4503214;31;20072;-77
2023/09/03 01:26:08;;;;;;;10.20;4.50;;;;;;;20.44;81.50;98539.56;4502822;31;20095;-77
2023/09/03 01:28:38;;;;;;;9.38;4.05;;;;;;;20.88;79.77;98535.34;4502790;31;20159;-77
2023/09/03 01:31:11;;;;;;;10.32;4.40;;;;;;;20.85;79.76;98540.00;4489121;31;20366;-77
2023/09/03 01:33:42;;;;;;;8.35;4.60;;;;;;;20.45;82.03;98537.78;4503097;31;20421;-77
2023/09/03 01:36:10;;;;;;;9.55;4.57;;;;;;;20.61;82.01;98532.19;4488459;31;20130;-77
2023/09/03 01:38:38;;;;;;;9.90;4.68;;;;;;;20.62;81.90;98533.88;4488857;31;20131;-77
2023/09/03 01:41:06;;;;;;;13.88;4.80;;;;;;;20.61;81.90;98537.44;4488777;31;20451;-78
2023/09/03 01:43:33;;;;;;;9.13;4.65;;;;;;;20.51;82.88;98537.31;4488388;31;20094;-77
2023/09/03 01:46:05;;;;;;;8.68;4.22;;;;;;;20.46;82.28;98532.41;4502992;31;20347;-77
2023/09/03 01:48:59;;;;;;;8.48;4.32;;;;;;;20.26;82.37;98530.44;4502573;31;20092;-77
2023/09/03 01:51:51;;;;;;;9.18;4.45;;;;;;;20.60;80.14;98531.38;4503018;31;20079;-77
2023/09/03 01:54:25;;;;;;;8.43;4.82;;;;;;;20.26;81.70;98532.22;4483043;31;20167;-77
2023/09/03 01:57:05;;;;;;;10.50;4.70;;;;;;;19.98;84.18;98530.78;4502560;31;20083;-77
2023/09/03 01:59:41;;;;;;;8.57;4.30;;;;;;;19.99;83.66;98535.94;4488721;31;20088;-77
2023/09/03 02:02:09;;;;;;;9.20;4.40;;;;;;;20.22;82.11;98526.38;4502605;31;20076;-77
2023/09/03 02:04:36;;;;;;;9.25;4.28;;;;;;;19.83;84.05;98530.97;4488131;31;20558;-77
2023/09/03 02:07:04;;;;;;;8.13;3.97;;;;;;;19.69;85.22;98530.31;4502647;31;20111;-77
2023/09/03 02:09:31;;;;;;;8.35;3.90;;;;;;;20.13;82.51;98525.28;4502385;31;20438;-77
2023/09/03 02:11:58;;;;;;;8.35;3.95;;;;;;;20.00;82.84;98527.12;4488405;31;20138;-77
2023/09/03 02:14:26;;;;;;;8.20;3.30;;;;;;;20.06;81.58;98531.06;4502475;31;20099;-77
2023/09/03 02:16:53;;;;;;;10.25;3.60;;;;;;;20.15;80.42;98528.59;4503932;31;20148;-77
2023/09/03 02:19:21;;;;;;;7.62;3.45;;;;;;;19.89;81.63;98534.94;4490159;31;20118;-78
2023/09/03 02:21:48;;;;;;;8.30;3.87;;;;;;;19.43;84.34;98534.75;4504455;31;20420;-79
2023/09/03 02:24:15;;;;;;;8.93;4.22;;;;;;;19.47;84.73;98533.59;4504045;31;20525;-78
2023/09/03 02:26:43;;;;;;;8.48;4.12;;;;;;;19.37;85.67;98536.88;4504147;31;20088;-77
2023/09/03 02:29:11;;;;;;;9.18;3.75;;;;;;;19.46;85.63;98537.13;4490086;31;20108;-77
2023/09/03 02:31:38;;;;;;;9.10;4.18;;;;;;;20.19;81.41;98532.66;4489826;31;20147;-77
2023/09/03 02:34:06;;;;;;;8.38;4.07;;;;;;;20.06;80.73;98525.81;4504393;31;20147;-77
2023/09/03 02:36:34;;;;;;;8.90;4.82;;;;;;;20.06;80.44;98529.28;4490175;31;20100;-77
2023/09/03 02:39:03;;;;;;;8.82;4.25;;;;;;;20.01;80.38;98534.03;4504061;31;20133;-78
2023/09/03 02:41:30;;;;;;;8.75;4.03;;;;;;;20.09;80.02;98530.84;4504318;31;20446;-77
2023/09/03 02:43:58;;;;;;;8.50;4.05;;;;;;;19.77;81.11;98528.78;4490171;31;20083;-77
2023/09/03 02:46:25;;;;;;;8.70;4.10;;;;;;;19.76;81.89;98528.91;4504024;31;20100;-77
2023/09/03 02:48:53;;;;;;;9.10;4.32;;;;;;;19.65;82.13;98527.91;4490041;31;20179;-77
2023/09/03 02:51:20;;;;;;;9.05;4.05;;;;;;;19.75;81.79;98530.69;4504260;31;20088;-77
2023/09/03 02:53:47;;;;;;;8.73;4.30;;;;;;;19.85;81.27;98538.72;4503888;31;20088;-77
2023/09/03 02:56:15;;;;;;;10.18;4.85;;;;;;;19.82;81.08;98537.16;4490101;31;20119;-77
2023/09/03 02:58:42;;;;;;;8.27;4.40;;;;;;;19.64;82.30;98534.06;4503835;31;20155;-77
2023/09/03 03:01:11;;;;;;;9.93;4.62;;;;;;;19.69;82.72;98532.94;4504147;31;20499;-77
2023/09/03 03:03:38;;;;;;;9.50;4.65;;;;;;;19.74;81.69;98530.81;4504126;31;20076;-77
2023/09/03 03:06:05;;;;;;;8.23;3.87;;;;;;;19.89;81.14;98525.31;4489616;31;20160;-77
2023/09/03 03:08:32;;;;;;;8.77;4.10;;;;;;;19.94;80.56;98536.25;4489933;31;20438;-77
2023/09/03 03:11:10;;;;;;;9.35;4.10;;;;;;;19.51;83.60;98540.28;4504166;31;20115;-77
2023/09/03 03:13:40;;;;;;;10.32;4.12;;;;;;;19.36;85.28;98540.44;4503802;31;20072;-77
2023/09/03 03:16:09;;;;;;;9.48;4.07;;;;;;;19.28;86.14;98544.53;4504112;31;20088;-77
2023/09/03 03:18:37;;;;;;;7.78;4.20;;;;;;;19.49;85.54;98547.41;4504013;31;20103;-77
2023/09/03 03:21:08;;;;;;;8.13;4.18;;;;;;;19.49;85.67;98544.78;4503625;31;20147;-77
2023/09/03 03:23:36;;;;;;;8.25;3.95;;;;;;;20.06;82.10;98542.38;4503918;31;20088;-77
2023/09/03 03:26:04;;;;;;;8.93;4.43;;;;;;;20.19;81.22;98555.41;4503650;31;20110;-77
2023/09/03 03:28:34;;;;;;;8.52;4.40;;;;;;;20.07;82.70;98556.31;4503695;31;20096;-77
2023/09/03 03:31:11;;;;;;;8.65;4.40;;;;;;;20.13;82.33;98551.47;4489712;31;20084;-77
2023/09/03 03:33:39;;;;;;;9.90;4.32;;;;;;;20.18;83.34;98551.13;4503802;31;20546;-75
2023/09/03 03:36:07;;;;;;;9.82;4.32;;;;;;;20.20;82.91;98552.69;4489709;31;20369;-78
2023/09/03 03:38:34;;;;;;;9.57;4.87;;;;;;;20.17;83.43;98557.31;4503984;31;20160;-77
2023/09/03 03:41:14;;;;;;;8.07;4.43;;;;;;;20.39;81.94;98553.94;4503544;31;20102;-77
2023/09/03 03:43:43;;;;;;;9.20;4.32;;;;;;;20.39;81.46;98549.50;4503972;31;20072;-77
2023/09/03 03:46:16;;;;;;;8.70;4.20;;;;;;;20.39;81.14;98552.13;4504058;31;20108;-77
2023/09/03 03:48:44;;;;;;;7.50;3.95;;;;;;;20.38;81.29;98553.09;4503619;31;20106;-77
2023/09/03 03:51:11;;;;;;;10.10;3.85;;;;;;;20.56;80.20;98553.53;4503942;31;20084;-77
2023/09/03 03:53:39;;;;;;;8.30;4.03;;;;;;;20.39;81.53;98560.00;4489514;31;20099;-77
2023/09/03 03:56:10;;;;;;;8.55;4.00;;;;;;;20.32;81.23;98553.56;4503575;31;20095;-77
2023/09/03 03:58:39;;;;;;;8.68;3.95;;;;;;;20.41;80.95;98555.47;4489594;31;20461;-77
2023/09/03 04:01:17;;;;;;;8.20;4.28;;;;;;;20.41;80.82;98560.72;4503799;31;20132;-78
2023/09/03 04:03:46;;;;;;;9.32;4.45;;;;;;;20.33;81.36;98554.41;4489153;31;20103;-77
2023/09/03 04:06:14;;;;;;;9.25;4.45;;;;;;;20.28;81.60;98554.72;4503724;31;20107;-77
2023/09/03 04:08:43;;;;;;;10.43;4.80;;;;;;;20.26;81.93;98556.62;4489489;31;20371;-77
2023/09/03 04:11:13;;;;;;;9.45;5.07;;;;;;;20.05;82.99;98547.72;4503789;31;20084;-77
2023/09/03 04:13:40;;;;;;;10.63;4.87;;;;;;;20.12;83.43;98562.06;4489558;31;20099;-77
2023/09/03 04:16:11;;;;;;;9.20;4.72;;;;;;;20.38;81.75;98553.09;4489113;31;20194;-77
2023/09/03 04:18:39;;;;;;;10.55;5.00;;;;;;;20.55;80.17;98559.72;4489420;31;20092;-77
2023/09/03 04:21:06;;;;;;;9.57;4.78;;;;;;;20.48;80.69;98553.28;4503616;31;20102;-77
2023/09/03 04:23:33;;;;;;;9.40;5.12;;;;;;;20.44;80.96;98551.84;4503179;31;20080;-77
2023/09/03 04:26:00;;;;;;;9.80;5.00;;;;;;;20.66;79.57;98548.44;4503494;31;20147;-77
2023/09/03 04:28:27;;;;;;;10.88;5.40;;;;;;;20.45;80.70;98548.28;4503608;31;20167;-77
2023/09/03 04:30:59;;;;;;;10.52;4.80;;;;;;;20.29;82.23;98543.28;4503141;31;20681;-77
2023/09/03 04:33:26;;;;;;;8.70;4.25;;;;;;;20.60;81.14;98551.50;4503662;31;20080;-77
2023/09/03 04:35:55;;;;;;;9.23;4.85;;;;;;;20.99;78.51;98553.72;4503610;31;20087;-77
2023/09/03 04:38:22;;;;;;;10.25;4.82;;;;;;;20.47;80.62;98554.22;4502502;31;20601;-77
2023/09/03 04:40:49;;;;;;;9.57;4.68;;;;;;;20.69;79.65;98558.69;4489255;31;20098;-77
2023/09/03 04:43:17;;;;;;;9.57;4.87;;;;;;;20.76;79.86;98552.87;4503402;31;20155;-77
2023/09/03 04:45:53;;;;;;;10.05;4.50;;;;;;;20.55;81.28;98561.53;4488783;31;20103;-77
2023/09/03 04:48:21;;;;;;;9.88;4.70;;;;;;;20.45;83.14;98558.75;4503492;31;20111;-77
2023/09/03 04:50:49;;;;;;;9.55;4.00;;;;;;;20.43;82.48;98553.63;4503170;31;20430;-75
2023/09/03 04:53:16;;;;;;;9.45;5.43;;;;;;;20.51;83.21;98564.34;4489193;31;20147;-77
2023/09/03 04:55:43;;;;;;;9.93;5.57;;;;;;;20.54;84.05;98557.22;4503160;31;20751;-77
2023/09/03 04:58:10;;;;;;;9.60;5.05;;;;;;;20.98;80.33;98567.78;4503099;31;20118;-77
2023/09/03 05:00:37;;;;;;;9.02;4.55;;;;;;;20.86;80.58;98567.91;4503500;31;20114;-77
2023/09/03 05:03:04;;;;;;;8.73;4.57;;;;;;;20.94;79.23;98570.75;4489110;31;20147;-77
2023/09/03 05:05:42;;;;;;;9.18;4.72;;;;;;;20.93;79.50;98571.69;4502955;31;20100;-77
2023/09/03 05:08:09;;;;;;;;;;;;;;;21.05;80.14;98569.00;4489435;31;20159;-78
2023/09/03 05:10:37;;;;;;;11.80;4.78;;;;;;;20.38;82.91;98581.91;4476226;31;19986;-77
2023/09/03 05:13:04;;;;;;;11.10;4.43;;;;;;;20.61;82.15;98585.47;4502989;31;20452;-77
2023/09/03 05:15:31;;;;;;;9.63;4.78;;;;;;;20.49;83.30;98592.47;4503071;31;20161;-77
2023/09/03 05:18:00;;;;;;;10.70;4.55;;;;;;;20.74;82.48;98585.41;4503281;31;20104;-77
2023/09/03 05:20:27;;;;;;;8.10;3.75;;;;;;;20.36;83.86;98581.19;4502799;31;20084;-77
2023/09/03 05:22:55;;;;;;;8.13;3.95;;;;;;;20.86;83.07;98579.22;4503215;31;20114;-78
2023/09/03 05:25:22;;;;;;;8.95;3.62;;;;;;;21.31;80.79;98581.91;4502859;31;20127;-77
2023/09/03 05:27:49;;;;;;;8.20;4.03;;;;;;;21.91;78.02;98568.31;4502653;31;20160;-77
2023/09/03 05:30:16;;;;;;;12.00;3.80;;;;;;;22.41;76.76;98578.28;4503188;31;20072;-77
2023/09/03 05:32:43;;;;;;;9.13;3.50;;;;;;;23.18;72.55;98570.06;4503164;31;20110;-77
2023/09/03 05:35:10;;;;;;;7.03;3.20;;;;;;;23.91;68.41;98568.91;4502674;31;20102;-77
2023/09/03 05:37:36;;;;;;;7.07;3.15;;;;;;;24.72;65.48;98580.88;4503023;31;20095;-77
2023/09/03 05:40:04;;;;;;;8.85;3.35;;;;;;;24.57;65.48;98578.81;4502778;31;20115;-77
2023/09/03 05:42:32;;;;;;;7.07;3.40;;;;;;;24.48;65.91;98573.41;4502939;31;20361;-78
2023/09/03 05:44:59;;;;;;;9.48;3.83;;;;;;;24.53;67.56;98588.81;4502806;31;20114;-77
2023/09/03 05:47:26;;;;;;;9.32;3.33;;;;;;;23.87;69.75;98589.44;4502634;31;20080;-78
2023/09/03 05:49:57;;;;;;;8.40;3.33;;;;;;;24.50;66.42;98589.09;4501471;31;20088;-77
2023/09/03 05:52:24;;;;;;;6.22;3.25;;;;;;;24.53;66.67;98581.72;4502903;31;20383;-77
2023/09/03 05:54:51;;;;;;;8.68;3.67;;;;;;;24.57;65.50;98594.66;4502402;31;20184;-77
2023/09/03 05:57:18;;;;;;;11.70;4.03;;;;;;;24.39;67.24;98611.16;4502869;31;20110;-78
2023/09/03 05:59:51;;;;;;;8.50;3.60;;;;;;;24.07;69.10;98598.22;4502789;31;20096;-78
2023/09/03 06:02:18;;;;;;;7.62;3.37;;;;;;;24.11;67.62;98602.22;4502298;31;20110;-78
2023/09/03 06:04:45;;;;;;;9.25;3.75;;;;;;;23.93;68.72;98610.00;4502481;31;20490;-78
2023/09/03 06:07:13;;;;;;;9.57;3.83;;;;;;;23.76;69.10;98604.53;4502737;31;20107;-78
2023/09/03 06:09:40;;;;;;;12.13;3.62;;;;;;;23.39;70.52;98605.06;4502306;31;20071;-78
2023/09/03 06:12:07;;;;;;;8.48;3.42;;;;;;;23.95;69.08;98609.84;4502657;31;20552;-78
2023/09/03 06:14:34;;;;;;;7.55;3.47;;;;;;;23.86;66.45;98618.56;4502442;31;20116;-77
2023/09/03 06:17:04;;;;;;;7.22;3.50;;;;;;;23.67;69.50;98622.81;4502358;31;20100;-77
2023/09/03 06:19:31;;;;;;;7.20;3.25;;;;;;;24.38;67.75;98629.78;4488238;31;20513;-78
2023/09/03 06:21:58;;;;;;;6.78;3.30;;;;;;;24.49;66.48;98616.44;4502408;31;20155;-78
2023/09/03 06:24:25;;;;;;;7.10;3.10;;;;;;;24.62;65.98;98624.91;4502071;31;20106;-78
2023/09/03 06:26:56;;;;;;;10.95;3.50;;;;;;;24.66;66.94;98617.53;4502214;31;20567;-78
2023/09/03 06:29:23;;;;;;;7.12;3.10;;;;;;;24.59;68.12;98606.72;4501988;31;20080;-78
2023/09/03 06:31:50;;;;;;;8.52;2.83;;;;;;;24.65;64.96;98607.94;4502312;31;20092;-78
2023/09/03 06:34:17;;;;;;;8.05;3.20;;;;;;;25.19;63.13;98609.94;4502076;31;20150;-78
2023/09/03 06:36:44;;;;;;;6.05;2.83;;;;;;;26.53;58.87;98610.19;4502017;31;20099;-78
2023/09/03 06:39:13;;;;;;;6.05;2.65;;;;;;;27.68;54.94;98622.37;4502170;31;20181;-78
2023/09/03 06:41:40;;;;;;;6.03;2.70;;;;;;;27.70;54.06;98620.38;4502182;31;20401;-78
2023/09/03 06:44:07;;;;;;;5.03;2.58;;;;;;;28.31;52.72;98632.50;4501744;31;20171;-78
2023/09/03 06:46:33;;;;;;;6.47;2.60;;;;;;;28.84;51.37;98633.03;4502190;31;20402;-79
2023/09/03 06:49:00;;;;;;;8.65;2.60;;;;;;;29.36;49.62;98639.59;4502083;31;20111;-78
2023/09/03 06:51:27;;;;;;;5.10;2.42;;;;;;;29.95;48.19;98650.69;4487410;31;20148;-78
2023/09/03 06:53:54;;;;;;;5.03;2.60;;;;;;;30.14;46.46;98653.94;4501920;31;20510;-78
2023/09/03 06:56:22;;;;;;;7.62;2.53;;;;;;;29.78;47.14;98650.97;4501945;31;20088;-78
2023/09/03 06:58:49;;;;;;;5.90;2.70;;;;;;;29.58;47.92;98655.84;4501409;31;20084;-78
2023/09/03 07:01:17;;;;;;;6.47;2.58;;;;;;;28.81;49.23;98645.63;4502255;31;20067;-78
2023/09/03 07:03:44;;;;;;;5.75;2.95;;;;;;;28.50;50.94;98642.81;4504052;31;20148;-78
2023/09/03 07:06:11;;;;;;;4.97;2.72;;;;;;;28.62;50.53;98651.28;4503925;31;20092;-78
2023/09/03 07:08:38;;;;;;;5.80;2.40;;;;;;;28.75;49.58;98651.59;4504143;31;20148;-78
2023/09/03 07:11:05;;;;;;;8.20;2.47;;;;;;;28.29;50.26;98657.56;4504221;31;20393;-78
2023/09/03 07:13:32;;;;;;;12.07;2.80;;;;;;;28.43;49.68;98668.34;4503872;31;20099;-78
2023/09/03 07:16:04;;;;;;;5.72;2.67;;;;;;;27.00;53.51;98668.09;4504124;31;20118;-78
2023/09/03 07:18:31;;;;;;;7.37;2.80;;;;;;;26.03;56.47;98670.66;4503771;31;20154;-78
2023/09/03 07:21:05;;;;;;;6.82;2.83;;;;;;;25.93;57.80;98686.56;4504144;31;20095;-78
2023/09/03 07:23:33;;;;;;;6.28;2.80;;;;;;;24.40;61.15;98681.41;4503843;31;20088;-77
2023/09/03 07:26:05;;;;;;;6.70;3.00;;;;;;;23.55;64.73;98684.44;4489272;31;20187;-77
2023/09/03 07:28:33;;;;;;;7.03;3.28;;;;;;;23.16;67.06;98687.81;4504075;31;20465;-78
2023/09/03 07:31:00;;;;;;;5.90;2.67;;;;;;;22.85;69.68;98689.53;4504058;31;20104;-77
2023/09/03 07:33:27;;;;;;;6.75;3.22;;;;;;;22.85;70.74;98684.28;4503655;31;20689;-77
2023/09/03 07:35:57;;;;;;;6.68;3.22;;;;;;;22.95;71.10;98679.91;4503899;31;20152;-77
2023/09/03 07:38:27;;;;;;;7.35;3.20;;;;;;;22.93;70.48;98682.69;4503933;31;20102;-77
2023/09/03 07:40:55;;;;;;;8.27;3.33;;;;;;;23.00;70.85;98675.13;4503819;31;20072;-77
2023/09/03 07:43:22;;;;;;;7.53;3.30;;;;;;;23.91;68.71;98677.78;4503817;31;20111;-78
2023/09/03 07:45:50;;;;;;;5.53;3.00;;;;;;;24.14;66.20;98674.97;4503733;31;20197;-77
2023/09/03 07:48:17;;;;;;;6.75;3.10;;;;;;;24.38;65.38;98679.88;4503452;31;20092;-78
2023/09/03 07:50:44;;;;;;;6.43;3.05;;;;;;;24.66;63.53;98678.22;4503962;31;20103;-78
2023/09/03 07:53:11;;;;;;;7.15;3.20;;;;;;;24.73;62.39;98674.06;4503877;31;20485;-78
2023/09/03 07:55:38;;;;;;;9.65;3.20;;;;;;;24.87;62.31;98675.41;4503317;31;20178;-78
2023/09/03 07:58:05;;;;;;;6.78;2.90;;;;;;;25.06;60.94;98676.25;4476657;31;20103;-78
2023/09/03 08:00:32;;;;;;;6.10;3.08;;;;;;;25.33;60.38;98690.53;4503538;31;20103;-78
2023/09/03 08:02:59;;;;;;;7.57;3.03;;;;;;;25.45;60.62;98685.91;4489502;31;20176;-78
2023/09/03 08:05:27;;;;;;;10.20;3.20;;;;;;;25.17;61.14;98682.34;4503647;31;20092;-78
2023/09/03 08:07:53;;;;;;;6.37;3.05;;;;;;;24.49;63.62;98685.03;4489132;31;20163;-78
2023/09/03 08:10:22;;;;;;;7.62;3.10;;;;;;;24.16;65.29;98683.56;4503821;31;20159;-78
2023/09/03 08:12:50;;;;;;;6.30;2.95;;;;;;;24.07;64.85;98679.94;4502731;31;20434;-77
2023/09/03 08:15:17;;;;;;;6.60;3.00;;;;;;;23.75;67.22;98672.19;4503173;31;20088;-77
2023/09/03 08:18:03;;;;;;;7.60;3.20;;;;;;;24.08;66.62;98686.03;4491719;31;20533;-77
2023/09/03 08:20:30;;;;;;;6.07;3.10;;;;;;;23.93;66.07;98688.22;4503683;31;20494;-77
2023/09/03 08:22:57;;;;;;;6.85;2.97;;;;;;;23.71;67.26;98685.75;4503169;31;20111;-78
2023/09/03 08:25:24;;;;;;;7.65;2.87;;;;;;;23.92;67.46;98679.44;4503560;31;20087;-78
2023/09/03 08:27:51;;;;;;;6.05;2.70;;;;;;;24.73;63.76;98676.69;4503310;31;20144;-77
2023/09/03 08:30:18;;;;;;;6.70;2.65;;;;;;;24.87;60.44;98675.41;4503231;31;20144;-77
2023/09/03 08:32:45;;;;;;;5.53;2.58;;;;;;;24.84;61.57;98671.25;4503550;31;20100;-77
2023/09/03 08:35:12;;;;;;;5.55;2.60;;;;;;;24.87;60.59;98681.53;4503390;31;20145;-77
2023/09/03 08:37:40;;;;;;;5.45;2.70;;;;;;;24.30;62.95;98677.06;4503148;31;20088;-78
2023/09/03 08:40:07;;;;;;;5.68;2.70;;;;;;;23.82;64.90;98683.88;4503476;31;20076;-78
2023/09/03 08:42:35;;;;;;;6.50;2.90;;;;;;;24.51;62.65;98689.19;4503110;31;20139;-78
2023/09/03 08:45:03;;;;;;;6.57;2.72;;;;;;;25.08;59.75;98684.88;4489065;31;20108;-78
2023/09/03 08:47:31;;;;;;;6.25;2.87;;;;;;;24.99;61.48;98685.72;4503377;31;20108;-78
2023/09/03 08:49:59;;;;;;;7.47;2.75;;;;;;;24.95;60.10;98691.41;4503014;31;20370;-78
2023/09/03 08:52:27;;;;;;;6.25;2.75;;;;;;;24.63;61.49;98687.25;4489330;31;20101;-77
2023/09/03 08:54:54;;;;;;;6.62;2.60;;;;;;;24.81;61.35;98684.75;4503210;31;20115;-77
2023/09/03 08:57:26;;;;;;;7.90;2.65;;;;;;;24.94;60.14;98692.38;4503019;31;20094;-77
2023/09/03 08:59:55;;;;;;;6.95;2.70;;;;;;;25.20;59.55;98700.56;4489284;31;20142;-78
2023/09/03 09:02:23;;;;;;;5.22;2.50;;;;;;;25.51;58.69;98702.00;4503321;31;20151;-76
2023/09/03 09:04:50;;;;;;;6.43;2.60;;;;;;;25.59;58.11;98709.22;4502708;31;20444;-76
2023/09/03 09:07:18;;;;;;;3.55;1.98;;;;;;;25.80;56.61;98709.03;4503251;31;20147;-76
2023/09/03 09:09:46;;;;;;;3.78;1.85;;;;;;;26.09;53.68;98701.81;4489110;31;20097;-77
2023/09/03 09:12:19;;;;;;;4.32;2.00;;;;;;;25.92;54.76;98697.28;4488598;31;20569;-78
2023/09/03 09:14:55;;;;;;;4.82;1.60;;;;;;;25.21;54.86;98691.69;4503234;31;20115;-78
2023/09/03 09:17:22;;;;;;;3.10;1.45;;;;;;;24.19;56.77;98699.94;4489077;31;20144;-78
2023/09/03 09:19:49;;;;;;;3.83;1.50;;;;;;;24.15;58.26;98698.53;4502901;31;20084;-77
2023/09/03 09:22:16;;;;;;;2.42;1.37;;;;;;;24.25;57.09;98698.56;4503216;31;20092;-77
2023/09/03 09:24:46;;;;;;;3.60;1.70;;;;;;;24.02;55.74;98699.75;4502446;31;20096;-77
2023/09/03 09:27:17;;;;;;;2.87;1.42;;;;;;;23.95;56.77;98707.38;4502703;31;20087;-77
2023/09/03 09:29:46;;;;;;;2.90;1.35;;;;;;;23.58;57.64;98705.25;4488994;31;20135;-77
2023/09/03 09:32:18;;;;;;;2.60;1.30;;;;;;;24.17;57.41;98701.88;4502855;31;20098;-77
2023/09/03 09:34:45;;;;;;;1.98;1.40;;;;;;;24.44;56.57;98693.34;4489010;31;20104;-78
2023/09/03 09:37:13;;;;;;;2.05;1.17;;;;;;;24.96;55.17;98709.72;4488900;31;20442;-77
2023/09/03 09:39:44;;;;;;;4.22;1.40;;;;;;;24.83;53.92;98714.47;4488474;31;20147;-77
2023/09/03 09:42:13;;;;;;;3.12;1.50;;;;;;;24.53;55.18;98702.22;4488802;31;20581;-77
2023/09/03 09:44:48;;;;;;;2.17;1.30;;;;;;;24.85;54.80;98699.31;4502840;31;20105;-77
2023/09/03 09:47:16;;;;;;;2.45;1.20;;;;;;;24.65;55.24;98709.03;4502510;31;20089;-78
2023/09/03 09:49:45;;;;;;;3.53;1.55;;;;;;;24.68;54.78;98710.59;4502935;31;20084;-77
2023/09/03 09:52:12;;;;;;;2.80;1.23;;;;;;;24.44;56.23;98724.97;4502820;31;20152;-77
2023/09/03 09:54:44;;;;;;;2.25;1.20;;;;;;;24.31;57.14;98723.56;4502442;31;20159;-77
2023/09/03 09:57:14;;;;;;;1.67;1.10;;;;;;;24.65;56.28;98724.03;4488523;31;20089;-77
2023/09/03 09:59:42;;;;;;;1.95;1.17;;;;;;;24.46;56.94;98716.97;4502562;31;20087;-77
2023/09/03 10:02:13;;;;;;;2.80;1.42;;;;;;;24.40;57.40;98715.69;4502668;31;20089;-77
2023/09/03 10:04:44;;;;;;;5.35;1.33;;;;;;;24.27;59.11;98717.72;4502505;31;20160;-77
2023/09/03 10:07:11;;;;;;;2.55;1.27;;;;;;;24.71;58.52;98719.06;4488100;31;20092;-77
2023/09/03 10:09:39;;;;;;;3.65;1.60;;;;;;;24.55;58.73;98724.03;4488457;31;20155;-77
2023/09/03 10:12:07;;;;;;;2.03;1.30;;;;;;;24.38;59.02;98724.72;4488447;31;20148;-78
2023/09/03 10:14:35;;;;;;;3.10;1.40;;;;;;;24.57;59.14;98726.56;4487948;31;20122;-77
2023/09/03 10:17:04;;;;;;;2.47;1.30;;;;;;;24.12;60.40;98725.16;4488270;31;20163;-77
2023/09/03 10:19:42;;;;;;;3.97;1.27;;;;;;;24.12;60.79;98727.78;4488213;31;20080;-77
2023/09/03 10:22:14;;;;;;;2.28;1.33;;;;;;;24.27;60.49;98728.28;4502219;31;20110;-77
2023/09/03 10:24:52;;;;;;;4.65;1.52;;;;;;;24.48;59.75;98736.13;4488101;31;20173;-77
2023/09/03 10:27:19;;;;;;;;;;;;;;;24.55;60.44;98739.03;4502384;31;20159;-77
2023/09/03 10:29:47;;;;;;;5.22;1.90;;;;;;;24.49;60.58;98743.06;4487839;31;19971;-77
2023/09/03 10:32:15;;;;;;;3.55;2.20;;;;;;;24.53;61.21;98744.44;4488127;31;20118;-77
2023/09/03 10:34:42;;;;;;;6.20;2.10;;;;;;;24.90;60.54;98741.97;4487632;31;20232;-77
2023/09/03 10:37:16;;;;;;;5.12;2.30;;;;;;;24.74;61.40;98729.31;4503309;31;20081;-78
2023/09/03 10:39:45;;;;;;;5.32;2.30;;;;;;;24.84;62.07;98736.41;4504442;31;20087;-79
2023/09/03 10:42:15;;;;;;;4.35;2.20;;;;;;;24.58;62.27;98741.41;4503923;31;20096;-78
2023/09/03 10:44:43;;;;;;;5.32;2.00;;;;;;;24.87;59.85;98733.50;4504197;31;20458;-79
2023/09/03 10:47:13;;;;;;;3.83;1.87;;;;;;;25.04;59.27;98741.59;4504400;31;20144;-79
2023/09/03 10:49:41;;;;;;;4.25;1.90;;;;;;;24.29;60.88;98749.22;4503907;31;20149;-78
2023/09/03 10:52:37;;;;;;;3.97;2.08;;;;;;;24.42;60.68;98741.91;4504219;31;20140;-79
2023/09/03 10:55:15;;;;;;;4.05;1.95;;;;;;;24.52;60.05;98746.25;4504193;31;20519;-78
2023/09/03 10:57:44;;;;;;;5.53;2.20;;;;;;;23.62;62.88;98758.53;4489804;31;20102;-78
2023/09/03 11:00:13;;;;;;;4.40;2.08;;;;;;;24.24;62.15;98755.75;4504279;31;20118;-78
2023/09/03 11:02:40;;;;;;;4.60;2.08;;;;;;;23.99;62.55;98758.84;4504246;31;20088;-77
2023/09/03 11:05:19;;;;;;;5.10;2.10;;;;;;;23.55;63.64;98752.06;4504102;31;20087;-78
2023/09/03 11:08:22;;;;;;;4.05;1.98;;;;;;;23.53;64.96;98740.84;4504084;31;20093;-79
2023/09/03 11:10:49;;;;;;;4.78;2.22;;;;;;;23.92;63.55;98732.16;4503836;31;20369;-78
2023/09/03 11:13:16;;;;;;;3.95;2.10;;;;;;;23.82;63.87;98739.22;4504158;31;20464;-79
2023/09/03 11:16:03;;;;;;;5.18;2.00;;;;;;;23.80;64.24;98735.87;4504393;31;20104;-78
2023/09/03 11:18:31;;;;;;;5.12;2.35;;;;;;;24.02;63.93;98745.38;4489534;31;20147;-78
2023/09/03 11:20:58;;;;;;;3.97;1.87;;;;;;;24.01;64.13;98742.87;4504143;31;20435;-78
2023/09/03 11:23:27;;;;;;;4.75;2.12;;;;;;;23.32;66.50;98732.97;4504033;31;20096;-78
2023/09/03 11:26:02;;;;;;;5.32;2.15;;;;;;;24.03;65.26;98731.25;4503524;31;20109;-79
2023/09/03 11:28:34;;;;;;;4.72;1.92;;;;;;;24.56;62.39;98733.59;4504121;31;20083;-78
2023/09/03 11:31:03;;;;;;;3.95;1.90;;;;;;;24.19;62.57;98725.47;4489587;31;20084;-79
2023/09/03 11:33:30;;;;;;;6.57;2.17;;;;;;;24.14;62.82;98717.12;4504015;31;20088;-79
2023/09/03 11:35:59;;;;;;;5.12;1.70;;;;;;;24.03;62.63;98723.34;4504001;31;20143;-78
2023/09/03 11:38:26;;;;;;;3.33;1.70;;;;;;;24.36;60.83;98710.84;4503665;31;20148;-79
2023/09/03 11:40:58;;;;;;;3.15;1.95;;;;;;;24.34;60.98;98718.03;4504012;31;20572;-79
2023/09/03 11:43:30;;;;;;;4.15;2.10;;;;;;;24.30;61.83;98720.06;4504010;31;20107;-78